createdAt,value
2023-08-10T00:01:01.344Z,96328.72
2023-08-10T00:03:30.109Z,96323.22
2023-08-10T00:05:58.105Z,96318.88
2023-08-10T00:08:26.626Z,96323.97
2023-08-10T00:10:55.741Z,96324.75
2023-08-10T00:13:23.618Z,96323.97
2023-08-10T00:15:51.527Z,96322.00
2023-08-10T00:18:20.508Z,96327.88
2023-08-10T00:20:48.398Z,96321.56
2023-08-10T00:23:16.187Z,96323.13
2023-08-10T00:25:44.276Z,96315.28
2023-08-10T00:28:12.166Z,96316.88
2023-08-10T00:30:40.849Z,96321.16
2023-08-10T00:33:10.771Z,96313.63
2023-08-10T00:35:40.860Z,96319.19
2023-08-10T00:38:08.841Z,96312.94
2023-08-10T00:40:36.869Z,96324.69
2023-08-10T00:43:04.967Z,96324.69
2023-08-10T00:45:33.886Z,96329.44
2023-08-10T00:48:02.620Z,96322.38
2023-08-10T00:50:31.322Z,96318.06
2023-08-10T00:52:59.314Z,96318.03
2023-08-10T00:55:27.969Z,96314.09
2023-08-10T00:57:55.902Z,96321.56
2023-08-10T01:00:23.805Z,96322.25
2023-08-10T01:02:51.712Z,96323.91
2023-08-10T01:05:19.875Z,96323.97
2023-08-10T01:07:58.244Z,96317.31
2023-08-10T01:10:39.020Z,96326.69
2023-08-10T01:13:34.851Z,96324.34
2023-08-10T01:16:09.953Z,96329.41
2023-08-10T01:18:39.871Z,96318.88
2023-08-10T01:21:34.713Z,96326.34
2023-08-10T01:24:10.442Z,96328.28
2023-08-10T01:26:38.808Z,96329.50
2023-08-10T01:29:07.265Z,96331.47
2023-08-10T01:31:35.501Z,96329.50
2023-08-10T01:34:03.512Z,96338.53
2023-08-10T01:36:31.509Z,96343.66
2023-08-10T01:38:59.275Z,96343.59
2023-08-10T01:41:27.518Z,96344.03
2023-08-10T01:43:55.375Z,96349.94
2023-08-10T01:46:26.866Z,96347.56
2023-08-10T01:48:58.055Z,96350.31
2023-08-10T01:51:29.262Z,96346.00
2023-08-10T01:53:59.788Z,96351.50
2023-08-10T01:56:27.718Z,96355.41
2023-08-10T01:58:55.688Z,96366.00
2023-08-10T02:01:23.750Z,96364.06
2023-08-10T02:03:51.871Z,96354.63
2023-08-10T02:06:19.842Z,96358.94
2023-08-10T02:08:47.651Z,96353.06
2023-08-10T02:11:15.515Z,96351.47
2023-08-10T02:13:43.334Z,96349.13
2023-08-10T02:16:12.456Z,96342.47
2023-08-10T02:18:42.033Z,96344.41
2023-08-10T02:21:11.372Z,96337.34
2023-08-10T02:23:39.325Z,96345.59
2023-08-10T02:26:07.395Z,96338.91
2023-08-10T02:28:35.347Z,96338.91
2023-08-10T02:31:04.575Z,96346.00
2023-08-10T02:33:32.515Z,96344.44
2023-08-10T02:36:00.508Z,96345.97
2023-08-10T02:38:28.379Z,96347.56
2023-08-10T02:40:56.237Z,96349.13
2023-08-10T02:43:24.001Z,96360.88
2023-08-10T02:45:52.539Z,96355.81
2023-08-10T02:48:22.290Z,96356.59
2023-08-10T02:50:50.805Z,96366.38
2023-08-10T02:53:18.749Z,96356.59
2023-08-10T02:55:46.604Z,96351.47
2023-08-10T02:58:14.850Z,96353.06
2023-08-10T03:00:42.909Z,96366.38
2023-08-10T03:03:10.913Z,96364.38
2023-08-10T03:05:38.790Z,96365.59
2023-08-10T03:08:06.814Z,96358.16
2023-08-10T03:10:35.102Z,96359.28
2023-08-10T03:13:03.775Z,96356.94
2023-08-10T03:15:32.274Z,96353.78
2023-08-10T03:18:01.338Z,96359.31
2023-08-10T03:20:29.370Z,96365.19
2023-08-10T03:22:57.726Z,96363.25
2023-08-10T03:25:25.587Z,96360.91
2023-08-10T03:27:53.512Z,96360.09
2023-08-10T03:30:21.973Z,96362.06
2023-08-10T03:32:49.812Z,96360.09
2023-08-10T03:35:18.404Z,96360.50
2023-08-10T03:37:46.541Z,96366.78
2023-08-10T03:40:14.551Z,96371.09
2023-08-10T03:42:43.157Z,96366.78
2023-08-10T03:45:11.624Z,96377.38
2023-08-10T03:47:39.475Z,96368.72
2023-08-10T03:50:08.458Z,96384.03
2023-08-10T03:52:36.981Z,96383.25
2023-08-10T03:55:05.153Z,96383.66
2023-08-10T03:57:34.140Z,96386.00
2023-08-10T04:00:02.661Z,96386.41
2023-08-10T04:02:32.149Z,96392.69
2023-08-10T04:05:00.216Z,96385.97
2023-08-10T04:07:28.063Z,96384.44
2023-08-10T04:09:55.839Z,96383.66
2023-08-10T04:12:23.905Z,96389.91
2023-08-10T04:14:52.242Z,96389.16
2023-08-10T04:17:20.690Z,96396.22
2023-08-10T04:19:48.982Z,96391.91
2023-08-10T04:22:16.834Z,96402.91
2023-08-10T04:24:44.659Z,96403.69
2023-08-10T04:27:12.791Z,96395.81
2023-08-10T04:29:45.809Z,96400.16
2023-08-10T04:32:14.804Z,96397.41
2023-08-10T04:34:42.821Z,96406.81
2023-08-10T04:37:10.705Z,96411.94
2023-08-10T04:39:38.564Z,96409.56
2023-08-10T04:42:06.823Z,96408.75
2023-08-10T04:44:35.155Z,96408.75
2023-08-10T04:47:03.096Z,96409.97
2023-08-10T04:49:32.173Z,96411.47
2023-08-10T04:52:00.046Z,96411.91
2023-08-10T04:54:28.625Z,96415.78
2023-08-10T04:56:57.161Z,96415.41
2023-08-10T04:59:25.171Z,96412.22
2023-08-10T05:01:53.113Z,96410.28
2023-08-10T05:04:20.975Z,96409.50
2023-08-10T05:06:48.814Z,96398.09
2023-08-10T05:09:17.010Z,96412.66
2023-08-10T05:11:44.869Z,96412.28
2023-08-10T05:14:12.679Z,96418.91
2023-08-10T05:16:40.571Z,96417.34
2023-08-10T05:19:08.555Z,96424.00
2023-08-10T05:21:36.402Z,96424.38
2023-08-10T05:24:04.631Z,96424.34
2023-08-10T05:26:32.611Z,96426.22
2023-08-10T05:29:00.525Z,96422.28
2023-08-10T05:31:28.572Z,96427.75
2023-08-10T05:33:56.390Z,96427.28
2023-08-10T05:36:24.276Z,96423.28
2023-08-10T05:38:52.068Z,96435.00
2023-08-10T05:41:19.871Z,96435.75
2023-08-10T05:43:47.760Z,96439.22
2023-08-10T05:46:15.601Z,96445.47
2023-08-10T05:48:46.095Z,96447.41
2023-08-10T05:51:14.146Z,96449.38
2023-08-10T05:53:42.486Z,96446.66
2023-08-10T05:56:10.809Z,96451.31
2023-08-10T05:58:38.671Z,96450.03
2023-08-10T06:01:06.633Z,96448.75
2023-08-10T06:03:34.498Z,96451.75
2023-08-10T06:06:02.325Z,96457.53
2023-08-10T06:08:30.208Z,96450.53
2023-08-10T06:10:58.044Z,96445.53
2023-08-10T06:13:25.942Z,96452.31
2023-08-10T06:15:53.794Z,96450.34
2023-08-10T06:18:21.797Z,96451.78
2023-08-10T06:20:49.656Z,96447.38
2023-08-10T06:23:17.579Z,96445.28
2023-08-10T06:25:45.587Z,96443.06
2023-08-10T06:28:13.678Z,96447.84
2023-08-10T06:30:41.858Z,96451.78
2023-08-10T06:33:09.806Z,96446.63
2023-08-10T06:35:37.610Z,96459.09
2023-08-10T06:38:05.798Z,96451.44
2023-08-10T06:40:33.791Z,96456.78
2023-08-10T06:43:01.755Z,96455.09
2023-08-10T06:45:48.289Z,96456.88
2023-08-10T06:48:17.182Z,96453.47
2023-08-10T06:50:45.486Z,96464.22
2023-08-10T06:53:13.502Z,96454.16
2023-08-10T06:55:41.305Z,96456.09
2023-08-10T06:58:10.004Z,96465.53
2023-08-10T07:00:38.750Z,96470.09
2023-08-10T07:03:07.626Z,96466.31
2023-08-10T07:05:41.987Z,96467.28
2023-08-10T07:08:13.174Z,96467.97
2023-08-10T07:10:40.984Z,96467.50
2023-08-10T07:13:08.897Z,96461.88
2023-08-10T07:15:36.788Z,96462.88
2023-08-10T07:18:05.727Z,96463.16
2023-08-10T07:20:35.937Z,96466.69
2023-08-10T07:23:04.587Z,96468.75
2023-08-10T07:25:33.253Z,96472.53
2023-08-10T07:28:01.316Z,96472.22
2023-08-10T07:30:30.340Z,96477.34
2023-08-10T07:32:58.395Z,96476.59
2023-08-10T07:35:27.891Z,96474.25
2023-08-10T07:37:56.045Z,96479.31
2023-08-10T07:40:25.034Z,96472.50
2023-08-10T07:42:52.883Z,96477.53
2023-08-10T07:45:20.749Z,96478.13
2023-08-10T07:47:48.844Z,96482.91
2023-08-10T07:50:16.871Z,96484.63
2023-08-10T07:52:45.236Z,96487.25
2023-08-10T07:55:16.975Z,96484.06
2023-08-10T07:57:45.001Z,96489.94
2023-08-10T08:00:13.542Z,96496.34
2023-08-10T08:02:42.170Z,96492.84
2023-08-10T08:05:10.592Z,96491.22
2023-08-10T08:07:38.775Z,96484.81
2023-08-10T08:10:07.209Z,96490.91
2023-08-10T08:12:35.143Z,96496.22
2023-08-10T08:15:04.790Z,96493.22
2023-08-10T08:18:12.000Z,96498.13
2023-08-10T08:20:39.831Z,96493.78
2023-08-10T08:23:08.348Z,96499.22
2023-08-10T08:25:37.866Z,96491.81
2023-08-10T08:28:08.186Z,96505.97
2023-08-10T08:30:36.095Z,96494.63
2023-08-10T08:33:04.374Z,96501.47
2023-08-10T08:35:32.331Z,96497.88
2023-08-10T08:38:00.443Z,96496.97
2023-08-10T08:40:29.132Z,96498.28
2023-08-10T08:42:59.462Z,96497.06
2023-08-10T08:45:27.275Z,96500.44
2023-08-10T08:47:55.658Z,96490.69
2023-08-10T08:50:24.413Z,96497.41
2023-08-10T08:52:53.922Z,96490.03
2023-08-10T08:55:22.033Z,96491.22
2023-08-10T08:57:51.106Z,96495.13
2023-08-10T09:00:19.199Z,96488.88
2023-08-10T09:02:47.182Z,96492.78
2023-08-10T09:07:43.355Z,96491.75
2023-08-10T09:10:11.309Z,96491.69
2023-08-10T09:12:41.516Z,96490.19
2023-08-10T09:15:14.573Z,96476.50
2023-08-10T09:21:42.110Z,96478.50
2023-08-10T09:24:12.434Z,96479.00
2023-08-10T09:26:41.722Z,96473.72
2023-08-10T09:29:09.852Z,96471.13
2023-08-10T09:31:43.227Z,96473.09
2023-08-10T09:34:15.139Z,96470.59
2023-08-10T09:36:54.865Z,96464.66
2023-08-10T09:39:22.863Z,96471.75
2023-08-10T09:41:57.712Z,96470.59
2023-08-10T09:44:25.563Z,96468.78
2023-08-10T09:46:57.898Z,96464.97
2023-08-10T09:49:25.731Z,96468.19
2023-08-10T09:52:00.375Z,96463.22
2023-08-10T09:54:29.688Z,96464.44
2023-08-10T09:56:58.963Z,96464.00
2023-08-10T09:59:27.255Z,96463.41
2023-08-10T10:01:56.560Z,96461.44
2023-08-10T10:04:26.280Z,96463.41
2023-08-10T10:06:56.081Z,96461.63
2023-08-10T10:09:25.693Z,96461.16
2023-08-10T10:11:56.158Z,96460.03
2023-08-10T10:14:25.000Z,96460.88
2023-08-10T10:16:53.207Z,96455.56
2023-08-10T10:19:21.967Z,96461.09
2023-08-10T10:21:50.336Z,96463.00
2023-08-10T10:24:21.444Z,96461.44
2023-08-10T10:27:03.116Z,96463.47
2023-08-10T10:29:38.590Z,96462.16
2023-08-10T10:32:23.486Z,96456.56
2023-08-10T10:34:54.182Z,96452.06
2023-08-10T10:37:29.482Z,96445.97
2023-08-10T10:40:17.147Z,96445.72
2023-08-10T10:43:03.645Z,96448.53
2023-08-10T10:45:37.840Z,96437.16
2023-08-10T10:48:07.386Z,96444.34
2023-08-10T10:50:37.417Z,96440.66
2023-08-10T10:53:14.685Z,96429.09
2023-08-10T10:55:45.072Z,96434.69
2023-08-10T10:58:15.151Z,96433.69
2023-08-10T11:00:47.950Z,96437.16
2023-08-10T11:03:20.410Z,96428.81
2023-08-10T11:05:48.437Z,96428.69
2023-08-10T11:08:17.138Z,96426.22
2023-08-10T11:10:46.082Z,96431.44
2023-08-10T11:13:14.562Z,96423.34
2023-08-10T11:15:48.113Z,96420.53
2023-08-10T11:18:16.184Z,96420.38
2023-08-10T11:20:50.020Z,96409.88
2023-08-10T11:23:18.288Z,96405.88
2023-08-10T11:25:51.775Z,96404.13
2023-08-10T11:28:22.156Z,96396.81
2023-08-10T11:30:51.102Z,96400.00
2023-08-10T11:33:20.527Z,96393.78
2023-08-10T11:35:52.472Z,96388.69
2023-08-10T11:38:21.487Z,96388.22
2023-08-10T11:40:49.691Z,96388.47
2023-08-10T11:43:21.531Z,96377.13
2023-08-10T11:45:49.855Z,96386.66
2023-08-10T11:48:20.939Z,96381.94
2023-08-10T11:50:49.009Z,96380.25
2023-08-10T11:53:22.212Z,96376.66
2023-08-10T11:55:53.140Z,96377.47
2023-08-10T11:58:21.618Z,96378.25
2023-08-10T12:00:51.820Z,96377.28
2023-08-10T12:03:30.369Z,96367.19
2023-08-10T12:06:08.437Z,96369.91
2023-08-10T12:11:57.374Z,96362.75
2023-08-10T12:14:25.865Z,96369.81
2023-08-10T12:16:54.457Z,96369.00
2023-08-10T12:19:22.481Z,96356.53
2023-08-10T12:21:50.491Z,96356.84
2023-08-10T12:24:18.654Z,96359.88
2023-08-10T12:27:01.762Z,96353.84
2023-08-10T12:29:29.571Z,96353.56
2023-08-10T12:31:57.457Z,96343.56
2023-08-10T12:34:25.353Z,96339.19
2023-08-10T12:36:53.693Z,96336.22
2023-08-10T12:39:21.660Z,96340.28
2023-08-10T12:41:49.480Z,96343.53
2023-08-10T12:44:17.360Z,96346.81
2023-08-10T12:46:45.483Z,96350.22
2023-08-10T12:49:13.413Z,96340.72
2023-08-10T12:51:41.318Z,96338.25
2023-08-10T12:54:09.117Z,96342.91
2023-08-10T12:56:37.223Z,96341.03
2023-08-10T12:59:05.340Z,96335.75
2023-08-10T13:01:34.294Z,96352.41
2023-08-10T13:04:02.150Z,96341.84
2023-08-10T13:06:30.023Z,96346.50
2023-08-10T13:08:59.481Z,96352.69
2023-08-10T13:11:27.590Z,96345.75
2023-08-10T13:13:55.470Z,96350.16
2023-08-10T13:16:23.369Z,96349.97
2023-08-10T13:18:52.026Z,96349.69
2023-08-10T13:21:21.292Z,96346.69
2023-08-10T13:23:49.354Z,96344.06
2023-08-10T13:26:17.944Z,96340.94
2023-08-10T13:28:46.008Z,96344.47
2023-08-10T13:31:13.909Z,96347.41
2023-08-10T13:33:41.884Z,96346.34
2023-08-10T13:36:10.489Z,96341.22
2023-08-10T13:38:38.737Z,96351.13
2023-08-10T13:41:07.356Z,96343.72
2023-08-10T13:43:36.096Z,96349.59
2023-08-10T13:46:04.226Z,96344.66
2023-08-10T13:48:33.759Z,96345.56
2023-08-10T13:51:01.629Z,96343.06
2023-08-10T13:53:29.577Z,96343.53
2023-08-10T13:55:57.443Z,96340.75
2023-08-10T13:58:25.566Z,96342.16
2023-08-10T14:00:55.438Z,96342.47
2023-08-10T14:03:23.432Z,96339.81
2023-08-10T14:05:51.380Z,96333.44
2023-08-10T14:08:20.105Z,96335.44
2023-08-10T14:10:47.902Z,96335.00
2023-08-10T14:13:15.937Z,96337.16
2023-08-10T14:15:43.748Z,96337.63
2023-08-10T14:18:11.757Z,96339.34
2023-08-10T14:20:39.652Z,96339.34
2023-08-10T14:23:07.630Z,96331.06
2023-08-10T14:25:36.368Z,96336.63
2023-08-10T14:28:04.497Z,96330.31
2023-08-10T14:30:32.738Z,96324.47
2023-08-10T14:33:00.785Z,96331.34
2023-08-10T14:35:28.826Z,96325.41
2023-08-10T14:37:57.693Z,96332.31
2023-08-10T14:40:25.594Z,96331.03
2023-08-10T14:42:53.528Z,96329.94
2023-08-10T14:45:21.606Z,96336.38
2023-08-10T14:48:01.129Z,96334.50
2023-08-10T14:50:29.709Z,96329.78
2023-08-10T14:52:57.664Z,96332.38
2023-08-10T14:55:25.878Z,96323.59
2023-08-10T14:57:53.943Z,96313.44
2023-08-10T15:00:22.261Z,96312.16
2023-08-10T15:02:50.781Z,96301.13
2023-08-10T15:05:20.193Z,96305.84
2023-08-10T15:07:48.185Z,96317.25
2023-08-10T15:10:16.171Z,96313.34
2023-08-10T15:12:43.988Z,96314.34
2023-08-10T15:15:14.322Z,96305.97
2023-08-10T15:17:42.772Z,96304.00
2023-08-10T15:20:13.523Z,96303.50
2023-08-10T15:22:41.688Z,96307.03
2023-08-10T15:25:10.949Z,96302.06
2023-08-10T15:27:43.628Z,96303.19
2023-08-10T15:30:15.817Z,96294.41
2023-08-10T15:32:44.134Z,96303.59
2023-08-10T15:35:12.128Z,96298.03
2023-08-10T15:37:40.427Z,96301.16
2023-08-10T15:40:10.472Z,96299.84
2023-08-10T15:42:38.963Z,96293.31
2023-08-10T15:45:09.120Z,96286.81
2023-08-10T15:47:37.349Z,96292.91
2023-08-10T15:50:08.825Z,96283.59
2023-08-10T15:52:36.858Z,96283.94
2023-08-10T15:55:05.391Z,96275.44
2023-08-10T15:57:33.258Z,96272.25
2023-08-10T16:00:01.246Z,96275.50
2023-08-10T16:02:29.208Z,96283.56
2023-08-10T16:04:57.079Z,96279.25
2023-08-10T16:08:10.801Z,96278.84
2023-08-10T16:11:09.476Z,96276.69
2023-08-10T16:13:37.407Z,96277.03
2023-08-10T16:16:06.755Z,96280.31
2023-08-10T16:18:36.168Z,96272.09
2023-08-10T16:21:04.804Z,96283.41
2023-08-10T16:23:33.028Z,96282.66
2023-08-10T16:26:00.842Z,96277.53
2023-08-10T16:28:28.641Z,96271.38
2023-08-10T16:30:56.597Z,96276.47
2023-08-10T16:33:24.505Z,96281.28
2023-08-10T16:35:52.512Z,96279.13
2023-08-10T16:38:20.335Z,96275.78
2023-08-10T16:40:48.689Z,96269.63
2023-08-10T16:43:16.554Z,96268.91
2023-08-10T16:45:45.481Z,96274.00
2023-08-10T16:48:13.348Z,96274.28
2023-08-10T16:50:41.505Z,96274.00
2023-08-10T16:53:09.383Z,96278.28
2023-08-10T16:55:37.624Z,96272.88
2023-08-10T16:58:05.458Z,96269.72
2023-08-10T17:00:33.386Z,96275.88
2023-08-10T17:03:01.294Z,96279.22
2023-08-10T17:05:29.433Z,96267.06
2023-08-10T17:07:57.250Z,96274.59
2023-08-10T17:10:27.166Z,96265.94
2023-08-10T17:13:08.643Z,96266.13
2023-08-10T17:15:51.698Z,96265.59
2023-08-10T17:18:19.581Z,96262.00
2023-08-10T17:20:47.506Z,96276.31
2023-08-10T17:23:15.739Z,96264.31
2023-08-10T17:25:43.605Z,96267.31
2023-08-10T17:28:12.604Z,96265.25
2023-08-10T17:30:40.538Z,96272.09
2023-08-10T17:33:08.400Z,96259.03
2023-08-10T17:35:36.476Z,96265.13
2023-08-10T17:38:04.462Z,96264.84
2023-08-10T17:40:32.312Z,96267.56
2023-08-10T17:43:00.285Z,96260.22
2023-08-10T17:45:28.153Z,96266.59
2023-08-10T17:47:56.162Z,96265.34
2023-08-10T17:50:24.033Z,96263.41
2023-08-10T17:52:52.039Z,96260.19
2023-08-10T17:55:20.690Z,96260.84
2023-08-10T17:57:50.563Z,96266.88
2023-08-10T18:00:18.987Z,96258.75
2023-08-10T18:02:46.983Z,96264.78
2023-08-10T18:05:15.093Z,96257.88
2023-08-10T18:07:42.829Z,96257.59
2023-08-10T18:10:11.184Z,96262.97
2023-08-10T18:12:41.088Z,96277.19
2023-08-10T18:15:10.002Z,96284.97
2023-08-10T18:17:37.941Z,96280.50
2023-08-10T18:20:06.804Z,96275.13
2023-08-10T18:22:34.896Z,96277.34
2023-08-10T18:25:02.850Z,96279.81
2023-08-10T18:27:30.993Z,96298.81
2023-08-10T18:29:58.811Z,96296.06
2023-08-10T18:32:26.855Z,96292.97
2023-08-10T18:34:54.843Z,96293.78
2023-08-10T18:37:22.856Z,96303.34
2023-08-10T18:39:52.048Z,96309.41
2023-08-10T18:42:19.836Z,96316.59
2023-08-10T18:44:48.151Z,96311.53
2023-08-10T18:47:16.030Z,96314.50
2023-08-10T18:49:43.886Z,96311.75
2023-08-10T18:52:11.699Z,96316.81
2023-08-10T18:54:39.754Z,96320.50
2023-08-10T18:57:08.216Z,96327.50
2023-08-10T18:59:36.067Z,96319.84
2023-08-10T19:02:04.097Z,96327.88
2023-08-10T19:04:31.924Z,96337.41
2023-08-10T19:06:59.736Z,96338.97
2023-08-10T19:09:27.532Z,96348.56
2023-08-10T19:11:55.326Z,96341.50
2023-08-10T19:14:23.341Z,96359.56
2023-08-10T19:16:51.152Z,96361.66
2023-08-10T19:19:18.980Z,96362.09
2023-08-10T19:21:46.823Z,96360.22
2023-08-10T19:24:14.845Z,96373.22
2023-08-10T19:26:42.715Z,96368.06
2023-08-10T19:29:10.759Z,96369.22
2023-08-10T19:31:38.703Z,96379.00
2023-08-10T19:34:06.644Z,96368.19
2023-08-10T19:36:34.478Z,96377.16
2023-08-10T19:39:02.308Z,96387.13
2023-08-10T19:41:30.290Z,96388.94
2023-08-10T19:43:58.132Z,96385.59
2023-08-10T19:46:27.014Z,96383.75
2023-08-10T19:48:55.860Z,96390.97
2023-08-10T19:51:23.766Z,96386.22
2023-08-10T19:53:52.645Z,96391.94
2023-08-10T19:56:20.622Z,96384.81
2023-08-10T19:58:51.107Z,96390.66
2023-08-10T20:01:21.628Z,96390.41
2023-08-10T20:03:49.677Z,96398.13
2023-08-10T20:06:17.866Z,96392.69
2023-08-10T20:08:45.623Z,96404.00
2023-08-10T20:11:13.930Z,96399.00
2023-08-10T20:13:41.843Z,96400.72
2023-08-10T20:16:09.811Z,96392.56
2023-08-10T20:18:39.176Z,96399.44
2023-08-10T20:21:07.108Z,96395.28
2023-08-10T20:23:34.959Z,96404.19
2023-08-10T20:26:02.792Z,96401.56
2023-08-10T20:28:30.681Z,96397.25
2023-08-10T20:31:00.029Z,96398.13
2023-08-10T20:33:28.091Z,96402.94
2023-08-10T20:35:56.424Z,96408.97
2023-08-10T20:38:24.228Z,96403.16
2023-08-10T20:40:52.092Z,96401.81
2023-08-10T20:43:20.018Z,96403.91
2023-08-10T20:45:47.856Z,96403.25
2023-08-10T20:48:15.648Z,96415.97
2023-08-10T20:50:43.490Z,96414.91
2023-08-10T20:53:12.473Z,96414.13
2023-08-10T20:55:41.027Z,96412.34
2023-08-10T20:58:08.873Z,96407.31
2023-08-10T21:00:37.632Z,96412.91
2023-08-10T21:03:06.074Z,96409.84
2023-08-10T21:05:33.996Z,96416.22
2023-08-10T21:08:01.925Z,96407.97
2023-08-10T21:10:29.800Z,96412.00
2023-08-10T21:12:57.651Z,96412.91
2023-08-10T21:15:25.684Z,96409.78
2023-08-10T21:17:53.772Z,96417.00
2023-08-10T21:20:21.582Z,96415.91
2023-08-10T21:22:49.455Z,96421.25
2023-08-10T21:25:17.938Z,96423.00
2023-08-10T21:27:51.656Z,96426.16
2023-08-10T21:30:19.629Z,96422.69
2023-08-10T21:32:47.734Z,96430.72
2023-08-10T21:35:15.651Z,96429.66
2023-08-10T21:37:43.615Z,96427.78
2023-08-10T21:40:12.459Z,96430.13
2023-08-10T21:42:40.859Z,96427.41
2023-08-10T21:45:09.389Z,96434.56
2023-08-10T21:47:37.379Z,96435.00
2023-08-10T21:50:06.849Z,96435.50
2023-08-10T21:52:34.837Z,96439.56
2023-08-10T21:55:02.888Z,96436.88
2023-08-10T21:57:31.588Z,96447.97
2023-08-10T22:00:09.217Z,96444.50
2023-08-10T22:02:38.838Z,96453.97
2023-08-10T22:05:07.144Z,96448.03
2023-08-10T22:07:35.227Z,96450.47
2023-08-10T22:10:03.899Z,96463.16
2023-08-10T22:12:32.334Z,96449.81
2023-08-10T22:15:00.277Z,96464.00
2023-08-10T22:17:28.532Z,96458.06
2023-08-10T22:19:56.610Z,96464.78
2023-08-10T22:22:24.488Z,96459.72
2023-08-10T22:24:52.434Z,96460.88
2023-08-10T22:27:20.374Z,96455.81
2023-08-10T22:29:48.220Z,96461.81
2023-08-10T22:32:16.200Z,96458.28
2023-08-10T22:34:44.164Z,96459.47
2023-08-10T22:37:12.002Z,96461.84
2023-08-10T22:39:40.096Z,96461.97
2023-08-10T22:42:08.500Z,96458.91
2023-08-10T22:44:36.444Z,96458.91
2023-08-10T22:47:04.738Z,96458.97
2023-08-10T22:49:33.720Z,96459.03
2023-08-10T22:52:01.637Z,96457.81
2023-08-10T22:54:29.450Z,96458.22
2023-08-10T22:56:57.426Z,96456.28
2023-08-10T22:59:28.354Z,96450.00
2023-08-10T23:01:56.684Z,96444.53
2023-08-10T23:04:24.557Z,96445.75
2023-08-10T23:06:52.825Z,96446.16
2023-08-10T23:09:20.746Z,96446.19
2023-08-10T23:11:48.637Z,96448.16
2023-08-10T23:14:17.704Z,96445.81
2023-08-10T23:16:48.177Z,96446.25
2023-08-10T23:19:17.213Z,96447.88
2023-08-10T23:21:45.244Z,96447.50
2023-08-10T23:24:13.152Z,96448.28
2023-08-10T23:26:41.021Z,96441.97
2023-08-10T23:29:08.935Z,96445.91
2023-08-10T23:31:36.847Z,96445.53
2023-08-10T23:34:05.562Z,96444.78
2023-08-10T23:36:33.876Z,96446.78
2023-08-10T23:39:01.727Z,96446.44
2023-08-10T23:41:29.566Z,96446.50
2023-08-10T23:43:57.488Z,96446.88
2023-08-10T23:46:25.785Z,96449.53
2023-08-10T23:48:53.719Z,96452.69
2023-08-10T23:51:21.597Z,96446.00
2023-08-10T23:53:49.469Z,96452.47
2023-08-10T23:56:17.348Z,96450.16
2023-08-10T23:58:47.512Z,96456.13
